sensor_id;sensor_type;location;lat;lon;timestamp;pressure;altitude;pressure_sealevel;temperature;humidity
68329;BME280;55182;56.864;60.554;2023-11-22T00:01:04;75728.91;;;-143.60;86.71
68329;BME280;55182;56.864;60.554;2023-11-22T00:03:30;75726.88;;;-143.60;86.57
68329;BME280;55182;56.864;60.554;2023-11-22T00:05:55;75728.91;;;-143.60;86.88
68329;BME280;55182;56.864;60.554;2023-11-22T00:08:21;75720.84;;;-143.60;86.99
68329;BME280;55182;56.864;60.554;2023-11-22T00:10:47;75722.88;;;-143.60;86.97
68329;BME280;55182;56.864;60.554;2023-11-22T00:13:12;75718.84;;;-143.60;87.18
68329;BME280;55182;56.864;60.554;2023-11-22T00:15:37;75702.78;;;-143.60;86.96
68329;BME280;55182;56.864;60.554;2023-11-22T00:18:03;75704.78;;;-143.60;87.18
68329;BME280;55182;56.864;60.554;2023-11-22T00:20:29;75708.81;;;-143.60;87.37
68329;BME280;55182;56.864;60.554;2023-11-22T00:22:54;75706.78;;;-143.60;87.22
68329;BME280;55182;56.864;60.554;2023-11-22T00:25:20;75700.75;;;-143.60;87.25
68329;BME280;55182;56.864;60.554;2023-11-22T00:27:45;75706.78;;;-143.60;87.05
68329;BME280;55182;56.864;60.554;2023-11-22T00:30:11;75702.78;;;-143.60;86.92
68329;BME280;55182;56.864;60.554;2023-11-22T00:32:36;75700.75;;;-143.60;87.34
68329;BME280;55182;56.864;60.554;2023-11-22T00:35:02;75704.78;;;-143.60;87.30
68329;BME280;55182;56.864;60.554;2023-11-22T00:37:28;75704.78;;;-143.60;87.38
68329;BME280;55182;56.864;60.554;2023-11-22T00:39:53;75708.81;;;-143.60;87.35
68329;BME280;55182;56.864;60.554;2023-11-22T00:42:19;75702.78;;;-143.60;87.43
68329;BME280;55182;56.864;60.554;2023-11-22T00:44:44;75694.75;;;-143.60;87.51
68329;BME280;55182;56.864;60.554;2023-11-22T00:47:10;75692.72;;;-143.60;87.45
68329;BME280;55182;56.864;60.554;2023-11-22T00:49:35;75700.75;;;-143.60;87.80
68329;BME280;55182;56.864;60.554;2023-11-22T00:52:01;75688.72;;;-143.60;87.62
68329;BME280;55182;56.864;60.554;2023-11-22T00:54:26;75690.72;;;-143.60;87.71
68329;BME280;55182;56.864;60.554;2023-11-22T00:56:51;75690.72;;;-143.60;87.42
68329;BME280;55182;56.864;60.554;2023-11-22T00:59:17;75684.69;;;-143.60;87.48
68329;BME280;55182;56.864;60.554;2023-11-22T01:01:43;75684.69;;;-143.60;87.59
68329;BME280;55182;56.864;60.554;2023-11-22T01:04:08;75688.72;;;-143.60;87.62
68329;BME280;55182;56.864;60.554;2023-11-22T01:06:34;75688.72;;;-143.60;87.79
68329;BME280;55182;56.864;60.554;2023-11-22T01:08:59;75686.69;;;-143.60;87.82
68329;BME280;55182;56.864;60.554;2023-11-22T01:11:25;75682.69;;;-143.60;88.07
68329;BME280;55182;56.864;60.554;2023-11-22T01:13:50;75680.69;;;-143.60;88.03
68329;BME280;55182;56.864;60.554;2023-11-22T01:16:16;75684.69;;;-143.60;87.90
68329;BME280;55182;56.864;60.554;2023-11-22T01:18:41;75674.66;;;-143.60;88.22
68329;BME280;55182;56.864;60.554;2023-11-22T01:21:07;75682.69;;;-143.60;88.25
68329;BME280;55182;56.864;60.554;2023-11-22T01:23:33;75684.69;;;-143.60;88.22
68329;BME280;55182;56.864;60.554;2023-11-22T01:25:59;75680.69;;;-143.60;88.04
68329;BME280;55182;56.864;60.554;2023-11-22T01:28:25;75682.69;;;-143.60;88.26
68329;BME280;55182;56.864;60.554;2023-11-22T01:30:50;75682.69;;;-143.60;88.62
68329;BME280;55182;56.864;60.554;2023-11-22T01:33:16;75680.69;;;-143.60;88.63
68329;BME280;55182;56.864;60.554;2023-11-22T01:35:41;75676.66;;;-143.60;88.67
68329;BME280;55182;56.864;60.554;2023-11-22T01:38:07;75678.66;;;-143.60;88.71
68329;BME280;55182;56.864;60.554;2023-11-22T01:40:32;75664.59;;;-143.60;88.79
68329;BME280;55182;56.864;60.554;2023-11-22T01:42:58;75668.63;;;-143.60;88.76
68329;BME280;55182;56.864;60.554;2023-11-22T01:45:23;75664.59;;;-143.60;88.86
68329;BME280;55182;56.864;60.554;2023-11-22T01:47:49;75656.56;;;-143.60;88.75
68329;BME280;55182;56.864;60.554;2023-11-22T01:50:15;75648.53;;;-143.60;88.76
68329;BME280;55182;56.864;60.554;2023-11-22T01:52:41;75656.56;;;-143.60;88.61
68329;BME280;55182;56.864;60.554;2023-11-22T01:55:07;75650.53;;;-143.60;88.65
68329;BME280;55182;56.864;60.554;2023-11-22T01:57:33;75654.56;;;-143.60;88.75
68329;BME280;55182;56.864;60.554;2023-11-22T01:59:59;75656.56;;;-143.60;88.76
68329;BME280;55182;56.864;60.554;2023-11-22T02:02:25;75654.56;;;-143.60;88.87
68329;BME280;55182;56.864;60.554;2023-11-22T02:04:50;75652.53;;;-143.60;88.58
68329;BME280;55182;56.864;60.554;2023-11-22T02:07:15;75646.53;;;-143.60;88.71
68329;BME280;55182;56.864;60.554;2023-11-22T02:09:41;75648.53;;;-143.60;88.96
68329;BME280;55182;56.864;60.554;2023-11-22T02:12:07;75644.50;;;-143.60;88.79
68329;BME280;55182;56.864;60.554;2023-11-22T02:14:32;75644.50;;;-143.60;88.86
68329;BME280;55182;56.864;60.554;2023-11-22T02:16:58;75642.50;;;-143.60;88.81
68329;BME280;55182;56.864;60.554;2023-11-22T02:19:23;75640.50;;;-143.60;89.02
68329;BME280;55182;56.864;60.554;2023-11-22T02:21:49;75636.47;;;-143.60;89.02
68329;BME280;55182;56.864;60.554;2023-11-22T02:24:14;75642.50;;;-143.60;89.21
68329;BME280;55182;56.864;60.554;2023-11-22T02:26:43;75642.50;;;-143.60;89.20
68329;BME280;55182;56.864;60.554;2023-11-22T02:29:09;75632.44;;;-143.60;89.18
68329;BME280;55182;56.864;60.554;2023-11-22T02:31:34;75634.47;;;-143.60;89.25
68329;BME280;55182;56.864;60.554;2023-11-22T02:33:59;75634.47;;;-143.60;89.00
68329;BME280;55182;56.864;60.554;2023-11-22T02:36:25;75632.44;;;-143.60;89.02
68329;BME280;55182;56.864;60.554;2023-11-22T02:38:50;75616.38;;;-143.60;89.12
68329;BME280;55182;56.864;60.554;2023-11-22T02:41:16;75626.44;;;-143.60;88.92
68329;BME280;55182;56.864;60.554;2023-11-22T02:43:41;75616.38;;;-143.60;89.04
68329;BME280;55182;56.864;60.554;2023-11-22T02:46:10;75624.41;;;-143.60;88.76
68329;BME280;55182;56.864;60.554;2023-11-22T02:48:35;75624.41;;;-143.60;88.84
68329;BME280;55182;56.864;60.554;2023-11-22T02:51:01;75622.41;;;-143.60;88.81
68329;BME280;55182;56.864;60.554;2023-11-22T02:53:26;75616.38;;;-143.60;88.89
68329;BME280;55182;56.864;60.554;2023-11-22T02:55:52;75606.34;;;-143.60;88.93
68329;BME280;55182;56.864;60.554;2023-11-22T02:58:17;75604.31;;;-143.60;88.72
68329;BME280;55182;56.864;60.554;2023-11-22T03:00:43;75600.31;;;-143.60;88.86
68329;BME280;55182;56.864;60.554;2023-11-22T03:03:08;75596.28;;;-143.60;88.92
68329;BME280;55182;56.864;60.554;2023-11-22T03:05:34;75586.25;;;-143.60;89.00
68329;BME280;55182;56.864;60.554;2023-11-22T03:07:59;75576.19;;;-143.60;88.93
68329;BME280;55182;56.864;60.554;2023-11-22T03:10:25;75578.19;;;-143.60;88.99
68329;BME280;55182;56.864;60.554;2023-11-22T03:12:50;75582.22;;;-143.60;88.92
68329;BME280;55182;56.864;60.554;2023-11-22T03:15:15;75580.22;;;-143.60;89.08
68329;BME280;55182;56.864;60.554;2023-11-22T03:17:41;75586.25;;;-143.60;89.07
68329;BME280;55182;56.864;60.554;2023-11-22T03:20:06;75584.22;;;-143.60;88.93
68329;BME280;55182;56.864;60.554;2023-11-22T03:22:32;75588.25;;;-143.60;89.29
68329;BME280;55182;56.864;60.554;2023-11-22T03:25:00;75590.25;;;-143.60;89.21
68329;BME280;55182;56.864;60.554;2023-11-22T03:27:25;75588.25;;;-143.60;89.43
68329;BME280;55182;56.864;60.554;2023-11-22T03:29:51;75588.25;;;-143.60;89.44
68329;BME280;55182;56.864;60.554;2023-11-22T03:32:16;75584.22;;;-143.60;89.40
68329;BME280;55182;56.864;60.554;2023-11-22T03:34:42;75588.25;;;-143.60;89.63
68329;BME280;55182;56.864;60.554;2023-11-22T03:37:07;75588.25;;;-143.60;89.40
68329;BME280;55182;56.864;60.554;2023-11-22T03:39:33;75592.25;;;-143.60;89.61
68329;BME280;55182;56.864;60.554;2023-11-22T03:41:59;75596.28;;;-143.60;89.75
68329;BME280;55182;56.864;60.554;2023-11-22T03:44:24;75600.31;;;-143.60;89.79
68329;BME280;55182;56.864;60.554;2023-11-22T03:46:50;75596.28;;;-143.60;89.92
68329;BME280;55182;56.864;60.554;2023-11-22T03:49:16;75598.28;;;-143.60;90.01
68329;BME280;55182;56.864;60.554;2023-11-22T03:51:42;75600.31;;;-143.60;89.79
68329;BME280;55182;56.864;60.554;2023-11-22T03:54:07;75596.28;;;-143.60;89.84
68329;BME280;55182;56.864;60.554;2023-11-22T03:56:33;75596.28;;;-143.60;89.85
68329;BME280;55182;56.864;60.554;2023-11-22T03:58:58;75596.28;;;-143.60;90.03
68329;BME280;55182;56.864;60.554;2023-11-22T04:01:24;75604.31;;;-143.60;89.89
68329;BME280;55182;56.864;60.554;2023-11-22T04:03:49;75598.28;;;-143.60;90.02
68329;BME280;55182;56.864;60.554;2023-11-22T04:06:15;75594.28;;;-143.60;89.74
68329;BME280;55182;56.864;60.554;2023-11-22T04:08:41;75592.25;;;-143.60;89.93
68329;BME280;55182;56.864;60.554;2023-11-22T04:11:07;75588.25;;;-143.60;89.71
68329;BME280;55182;56.864;60.554;2023-11-22T04:13:32;75582.22;;;-143.60;89.85
68329;BME280;55182;56.864;60.554;2023-11-22T04:15:58;75580.22;;;-143.60;89.69
68329;BME280;55182;56.864;60.554;2023-11-22T04:18:23;75572.19;;;-143.60;89.66
68329;BME280;55182;56.864;60.554;2023-11-22T04:20:48;75572.19;;;-143.60;89.50
68329;BME280;55182;56.864;60.554;2023-11-22T04:23:14;75570.16;;;-143.60;89.53
68329;BME280;55182;56.864;60.554;2023-11-22T04:25:40;75566.16;;;-143.60;89.71
68329;BME280;55182;56.864;60.554;2023-11-22T04:28:06;75566.16;;;-143.60;89.67
68329;BME280;55182;56.864;60.554;2023-11-22T04:30:31;75556.09;;;-143.60;89.24
68329;BME280;55182;56.864;60.554;2023-11-22T04:32:57;75562.13;;;-143.60;89.34
68329;BME280;55182;56.864;60.554;2023-11-22T04:35:22;75558.13;;;-143.60;89.43
68329;BME280;55182;56.864;60.554;2023-11-22T04:37:47;75564.13;;;-143.60;89.57
68329;BME280;55182;56.864;60.554;2023-11-22T04:40:13;75570.16;;;-143.60;89.51
68329;BME280;55182;56.864;60.554;2023-11-22T04:42:38;75560.13;;;-143.60;89.54
68329;BME280;55182;56.864;60.554;2023-11-22T04:45:04;75554.09;;;-143.60;89.59
68329;BME280;55182;56.864;60.554;2023-11-22T04:47:29;75540.03;;;-143.60;89.55
68329;BME280;55182;56.864;60.554;2023-11-22T04:49:55;75536.00;;;-143.60;89.39
68329;BME280;55182;56.864;60.554;2023-11-22T04:52:20;75532.00;;;-143.60;89.27
68329;BME280;55182;56.864;60.554;2023-11-22T04:54:46;75523.94;;;-143.60;89.08
68329;BME280;55182;56.864;60.554;2023-11-22T04:57:11;75515.91;;;-143.60;89.03
68329;BME280;55182;56.864;60.554;2023-11-22T04:59:37;75507.88;;;-143.60;88.87
68329;BME280;55182;56.864;60.554;2023-11-22T05:02:02;75495.81;;;-143.60;88.27
68329;BME280;55182;56.864;60.554;2023-11-22T05:04:28;75495.81;;;-143.60;88.48
68329;BME280;55182;56.864;60.554;2023-11-22T05:06:53;75493.81;;;-143.60;88.24
68329;BME280;55182;56.864;60.554;2023-11-22T05:09:19;75495.81;;;-143.60;88.35
68329;BME280;55182;56.864;60.554;2023-11-22T05:11:44;75479.75;;;-143.60;88.36
68329;BME280;55182;56.864;60.554;2023-11-22T05:14:10;75471.72;;;-143.60;88.33
68329;BME280;55182;56.864;60.554;2023-11-22T05:16:35;75467.69;;;-143.60;88.43
68329;BME280;55182;56.864;60.554;2023-11-22T05:19:01;75463.69;;;-143.60;88.04
68329;BME280;55182;56.864;60.554;2023-11-22T05:21:27;75471.72;;;-143.60;87.92
68329;BME280;55182;56.864;60.554;2023-11-22T05:23:52;75465.69;;;-143.60;88.04
68329;BME280;55182;56.864;60.554;2023-11-22T05:26:18;75451.63;;;-143.60;88.13
68329;BME280;55182;56.864;60.554;2023-11-22T05:28:43;75443.59;;;-143.60;87.62
68329;BME280;55182;56.864;60.554;2023-11-22T05:31:08;75443.59;;;-143.60;87.76
68329;BME280;55182;56.864;60.554;2023-11-22T05:33:34;75439.56;;;-143.60;87.28
68329;BME280;55182;56.864;60.554;2023-11-22T05:35:59;75433.53;;;-143.60;87.35
68329;BME280;55182;56.864;60.554;2023-11-22T05:38:25;75423.50;;;-143.60;87.37
68329;BME280;55182;56.864;60.554;2023-11-22T05:40:50;75411.44;;;-143.60;86.95
68329;BME280;55182;56.864;60.554;2023-11-22T05:43:15;75395.38;;;-143.60;86.76
68329;BME280;55182;56.864;60.554;2023-11-22T05:45:41;75391.34;;;-143.60;86.57
68329;BME280;55182;56.864;60.554;2023-11-22T05:48:06;75383.31;;;-143.60;86.01
68329;BME280;55182;56.864;60.554;2023-11-22T05:50:32;75375.28;;;-143.60;85.82
68329;BME280;55182;56.864;60.554;2023-11-22T05:52:57;75369.25;;;-143.60;85.40
68329;BME280;55182;56.864;60.554;2023-11-22T05:55:23;75375.28;;;-143.60;85.37
68329;BME280;55182;56.864;60.554;2023-11-22T05:57:48;75369.25;;;-143.60;85.73
68329;BME280;55182;56.864;60.554;2023-11-22T06:00:14;75361.22;;;-143.60;85.56
68329;BME280;55182;56.864;60.554;2023-11-22T06:02:39;75355.19;;;-143.60;85.83
68329;BME280;55182;56.864;60.554;2023-11-22T06:05:05;75349.16;;;-143.60;85.57
68329;BME280;55182;56.864;60.554;2023-11-22T06:07:31;75351.16;;;-143.60;85.47
68329;BME280;55182;56.864;60.554;2023-11-22T06:09:57;75351.16;;;-143.60;84.79
68329;BME280;55182;56.864;60.554;2023-11-22T06:12:22;75345.16;;;-143.60;85.19
68329;BME280;55182;56.864;60.554;2023-11-22T06:14:48;75341.13;;;-143.60;84.93
68329;BME280;55182;56.864;60.554;2023-11-22T06:17:13;75343.13;;;-143.60;84.70
68329;BME280;55182;56.864;60.554;2023-11-22T06:19:38;75347.16;;;-143.60;84.69
68329;BME280;55182;56.864;60.554;2023-11-22T06:22:04;75349.16;;;-143.60;84.94
68329;BME280;55182;56.864;60.554;2023-11-22T06:24:29;75345.16;;;-143.60;84.89
68329;BME280;55182;56.864;60.554;2023-11-22T06:26:55;75347.16;;;-143.60;85.13
68329;BME280;55182;56.864;60.554;2023-11-22T06:29:20;75339.13;;;-143.60;85.24
68329;BME280;55182;56.864;60.554;2023-11-22T06:31:46;75339.13;;;-143.60;85.07
68329;BME280;55182;56.864;60.554;2023-11-22T06:34:11;75323.03;;;-143.60;85.10
68329;BME280;55182;56.864;60.554;2023-11-22T06:36:37;75319.03;;;-143.60;85.26
68329;BME280;55182;56.864;60.554;2023-11-22T06:39:02;75308.97;;;-143.60;84.74
68329;BME280;55182;56.864;60.554;2023-11-22T06:41:27;75298.94;;;-143.60;84.54
68329;BME280;55182;56.864;60.554;2023-11-22T06:43:53;75290.91;;;-143.60;84.76
68329;BME280;55182;56.864;60.554;2023-11-22T06:46:19;75278.84;;;-143.60;84.13
68329;BME280;55182;56.864;60.554;2023-11-22T06:48:44;75280.84;;;-143.60;83.77
68329;BME280;55182;56.864;60.554;2023-11-22T06:51:09;75282.88;;;-143.60;83.73
68329;BME280;55182;56.864;60.554;2023-11-22T06:53:35;75294.91;;;-143.60;83.93
68329;BME280;55182;56.864;60.554;2023-11-22T06:56:01;75286.88;;;-143.60;84.56
68329;BME280;55182;56.864;60.554;2023-11-22T06:58:26;75282.88;;;-143.60;84.49
68329;BME280;55182;56.864;60.554;2023-11-22T07:00:52;75270.81;;;-143.60;84.27
68329;BME280;55182;56.864;60.554;2023-11-22T07:03:17;75268.81;;;-143.60;84.25
68329;BME280;55182;56.864;60.554;2023-11-22T07:05:43;75272.81;;;-143.60;84.08
68329;BME280;55182;56.864;60.554;2023-11-22T07:08:08;75284.88;;;-143.60;84.21
68329;BME280;55182;56.864;60.554;2023-11-22T07:10:34;75286.88;;;-143.60;84.46
68329;BME280;55182;56.864;60.554;2023-11-22T07:12:59;75282.88;;;-143.60;84.43
68329;BME280;55182;56.864;60.554;2023-11-22T07:15:25;75270.81;;;-143.60;84.70
68329;BME280;55182;56.864;60.554;2023-11-22T07:17:50;75252.72;;;-143.60;84.59
68329;BME280;55182;56.864;60.554;2023-11-22T07:20:16;75256.75;;;-143.60;84.53
68329;BME280;55182;56.864;60.554;2023-11-22T07:22:42;75244.69;;;-143.60;84.56
68329;BME280;55182;56.864;60.554;2023-11-22T07:25:07;75242.69;;;-143.60;84.03
68329;BME280;55182;56.864;60.554;2023-11-22T07:27:33;75238.66;;;-143.60;84.29
68329;BME280;55182;56.864;60.554;2023-11-22T07:29:59;75248.72;;;-143.60;84.22
68329;BME280;55182;56.864;60.554;2023-11-22T07:32:24;75246.69;;;-143.60;84.20
68329;BME280;55182;56.864;60.554;2023-11-22T07:34:50;75242.69;;;-143.60;84.21
68329;BME280;55182;56.864;60.554;2023-11-22T07:37:15;75234.66;;;-143.60;84.28
68329;BME280;55182;56.864;60.554;2023-11-22T07:39:40;75240.66;;;-143.60;84.18
68329;BME280;55182;56.864;60.554;2023-11-22T07:42:06;75234.66;;;-143.60;84.28
68329;BME280;55182;56.864;60.554;2023-11-22T07:44:31;75232.63;;;-143.60;84.08
68329;BME280;55182;56.864;60.554;2023-11-22T07:46:57;75226.59;;;-143.60;84.34
68329;BME280;55182;56.864;60.554;2023-11-22T07:49:22;75224.59;;;-143.60;84.22
68329;BME280;55182;56.864;60.554;2023-11-22T07:51:48;75214.56;;;-143.60;83.99
68329;BME280;55182;56.864;60.554;2023-11-22T07:54:13;75214.56;;;-143.60;84.02
68329;BME280;55182;56.864;60.554;2023-11-22T07:56:38;75198.47;;;-143.60;83.79
68329;BME280;55182;56.864;60.554;2023-11-22T07:59:04;75194.47;;;-143.60;83.87
68329;BME280;55182;56.864;60.554;2023-11-22T08:01:29;75194.47;;;-143.60;83.54
68329;BME280;55182;56.864;60.554;2023-11-22T08:03:55;75196.47;;;-143.60;83.43
68329;BME280;55182;56.864;60.554;2023-11-22T08:06:20;75194.47;;;-143.60;83.82
68329;BME280;55182;56.864;60.554;2023-11-22T08:08:46;75180.41;;;-143.60;83.63
68329;BME280;55182;56.864;60.554;2023-11-22T08:11:11;75182.41;;;-143.60;83.33
68329;BME280;55182;56.864;60.554;2023-11-22T08:13:37;75176.38;;;-143.60;83.22
68329;BME280;55182;56.864;60.554;2023-11-22T08:16:02;75176.38;;;-143.60;83.48
68329;BME280;55182;56.864;60.554;2023-11-22T08:18:28;75162.31;;;-143.60;83.17
68329;BME280;55182;56.864;60.554;2023-11-22T08:20:53;75146.25;;;-143.60;82.96
68329;BME280;55182;56.864;60.554;2023-11-22T08:23:18;75142.22;;;-143.60;82.93
68329;BME280;55182;56.864;60.554;2023-11-22T08:25:44;75128.16;;;-143.60;83.04
68329;BME280;55182;56.864;60.554;2023-11-22T08:28:09;75114.09;;;-143.60;82.49
68329;BME280;55182;56.864;60.554;2023-11-22T08:30:35;75104.06;;;-143.60;82.45
68329;BME280;55182;56.864;60.554;2023-11-22T08:33:00;75090.00;;;-143.60;82.50
68329;BME280;55182;56.864;60.554;2023-11-22T08:35:26;75083.97;;;-143.60;82.06
68329;BME280;55182;56.864;60.554;2023-11-22T08:37:51;75085.97;;;-143.60;81.81
68329;BME280;55182;56.864;60.554;2023-11-22T08:40:17;75094.00;;;-143.60;81.54
68329;BME280;55182;56.864;60.554;2023-11-22T08:42:42;75088.00;;;-143.60;81.85
68329;BME280;55182;56.864;60.554;2023-11-22T08:45:08;75073.94;;;-143.60;81.98
68329;BME280;55182;56.864;60.554;2023-11-22T08:47:34;75073.94;;;-143.60;81.94
68329;BME280;55182;56.864;60.554;2023-11-22T08:50:00;75069.91;;;-143.60;81.65
68329;BME280;55182;56.864;60.554;2023-11-22T08:52:25;75065.88;;;-143.60;81.54
68329;BME280;55182;56.864;60.554;2023-11-22T08:54:50;75055.84;;;-143.60;81.47
68329;BME280;55182;56.864;60.554;2023-11-22T08:57:16;75053.84;;;-143.60;81.47
68329;BME280;55182;56.864;60.554;2023-11-22T08:59:41;75049.81;;;-143.60;81.51
68329;BME280;55182;56.864;60.554;2023-11-22T09:02:07;75057.84;;;-143.60;81.58
68329;BME280;55182;56.864;60.554;2023-11-22T09:04:32;75061.88;;;-143.60;81.69
68329;BME280;55182;56.864;60.554;2023-11-22T09:06:58;75065.88;;;-143.60;81.57
68329;BME280;55182;56.864;60.554;2023-11-22T09:09:23;75065.88;;;-143.60;81.64
68329;BME280;55182;56.864;60.554;2023-11-22T09:11:49;75065.88;;;-143.60;81.58
68329;BME280;55182;56.864;60.554;2023-11-22T09:14:14;75061.88;;;-143.60;81.78
68329;BME280;55182;56.864;60.554;2023-11-22T09:16:39;75065.88;;;-143.60;81.72
68329;BME280;55182;56.864;60.554;2023-11-22T09:19:05;75065.88;;;-143.60;81.56
68329;BME280;55182;56.864;60.554;2023-11-22T09:21:31;75065.88;;;-143.60;81.95
68329;BME280;55182;56.864;60.554;2023-11-22T09:23:56;75065.88;;;-143.60;82.27
68329;BME280;55182;56.864;60.554;2023-11-22T09:26:21;75047.81;;;-143.60;82.24
68329;BME280;55182;56.864;60.554;2023-11-22T09:28:47;75049.81;;;-143.60;81.65
68329;BME280;55182;56.864;60.554;2023-11-22T09:31:13;75057.84;;;-143.60;81.81
68329;BME280;55182;56.864;60.554;2023-11-22T09:33:38;75053.84;;;-143.60;81.63
68329;BME280;55182;56.864;60.554;2023-11-22T09:36:04;75055.84;;;-143.60;82.15
68329;BME280;55182;56.864;60.554;2023-11-22T09:38:29;75059.88;;;-143.60;82.11
68329;BME280;55182;56.864;60.554;2023-11-22T09:40:55;75061.88;;;-143.60;82.15
68329;BME280;55182;56.864;60.554;2023-11-22T09:43:21;75061.88;;;-143.60;82.48
68329;BME280;55182;56.864;60.554;2023-11-22T09:45:47;75061.88;;;-143.60;82.44
68329;BME280;55182;56.864;60.554;2023-11-22T09:48:20;75057.84;;;-143.60;82.42
68329;BME280;55182;56.864;60.554;2023-11-22T09:56:02;75057.84;;;-143.60;82.55
68329;BME280;55182;56.864;60.554;2023-11-22T09:58:29;75051.81;;;-143.60;82.66
68329;BME280;55182;56.864;60.554;2023-11-22T10:00:56;75053.84;;;-143.60;82.29
68329;BME280;55182;56.864;60.554;2023-11-22T10:03:22;75061.88;;;-143.60;82.42
68329;BME280;55182;56.864;60.554;2023-11-22T10:05:48;75055.84;;;-143.60;82.73
68329;BME280;55182;56.864;60.554;2023-11-22T10:08:13;75061.88;;;-143.60;82.48
68329;BME280;55182;56.864;60.554;2023-11-22T10:10:39;75065.88;;;-143.60;82.72
68329;BME280;55182;56.864;60.554;2023-11-22T10:13:05;75055.84;;;-143.60;82.68
68329;BME280;55182;56.864;60.554;2023-11-22T10:15:30;75051.81;;;-143.60;82.99
68329;BME280;55182;56.864;60.554;2023-11-22T10:17:56;75061.88;;;-143.60;82.90
68329;BME280;55182;56.864;60.554;2023-11-22T10:20:23;75063.88;;;-143.60;82.93
68329;BME280;55182;56.864;60.554;2023-11-22T10:22:48;75057.84;;;-143.60;83.33
68329;BME280;55182;56.864;60.554;2023-11-22T10:25:14;75053.84;;;-143.60;83.49
68329;BME280;55182;56.864;60.554;2023-11-22T10:27:40;75047.81;;;-143.60;82.98
68329;BME280;55182;56.864;60.554;2023-11-22T10:30:06;75051.81;;;-143.60;83.10
68329;BME280;55182;56.864;60.554;2023-11-22T10:32:32;75053.84;;;-143.60;82.88
68329;BME280;55182;56.864;60.554;2023-11-22T10:34:57;75061.88;;;-143.60;82.63
68329;BME280;55182;56.864;60.554;2023-11-22T10:37:23;75065.88;;;-143.60;83.23
68329;BME280;55182;56.864;60.554;2023-11-22T10:39:52;75057.84;;;-143.60;83.80
68329;BME280;55182;56.864;60.554;2023-11-22T10:42:17;75057.84;;;-143.60;83.51
68329;BME280;55182;56.864;60.554;2023-11-22T10:44:43;75067.91;;;-143.60;83.60
68329;BME280;55182;56.864;60.554;2023-11-22T10:47:08;75063.88;;;-143.60;83.62
68329;BME280;55182;56.864;60.554;2023-11-22T10:49:34;75061.88;;;-143.60;83.86
68329;BME280;55182;56.864;60.554;2023-11-22T10:52:01;75067.91;;;-143.60;83.88
68329;BME280;55182;56.864;60.554;2023-11-22T10:54:28;75061.88;;;-143.60;84.00
68329;BME280;55182;56.864;60.554;2023-11-22T10:56:55;75057.84;;;-143.60;83.81
68329;BME280;55182;56.864;60.554;2023-11-22T10:59:22;75045.81;;;-143.60;83.54
68329;BME280;55182;56.864;60.554;2023-11-22T11:01:51;75057.84;;;-143.60;83.51
68329;BME280;55182;56.864;60.554;2023-11-22T11:04:45;75053.84;;;-143.60;83.58
68329;BME280;55182;56.864;60.554;2023-11-22T11:07:05;75053.84;;;-143.60;83.67
68329;BME280;55182;56.864;60.554;2023-11-22T11:09:34;75053.84;;;-143.60;83.72
68329;BME280;55182;56.864;60.554;2023-11-22T11:12:01;75041.78;;;-143.60;84.07
68329;BME280;55182;56.864;60.554;2023-11-22T11:14:26;75049.81;;;-143.60;84.13
68329;BME280;55182;56.864;60.554;2023-11-22T11:16:52;75041.78;;;-143.60;84.41
68329;BME280;55182;56.864;60.554;2023-11-22T11:19:18;75021.69;;;-143.60;84.31
68329;BME280;55182;56.864;60.554;2023-11-22T11:21:43;75033.75;;;-143.60;84.05
68329;BME280;55182;56.864;60.554;2023-11-22T11:24:09;75025.72;;;-143.60;84.02
68329;BME280;55182;56.864;60.554;2023-11-22T11:26:34;75027.72;;;-143.60;84.33
68329;BME280;55182;56.864;60.554;2023-11-22T11:29:00;75015.66;;;-143.60;84.17
68329;BME280;55182;56.864;60.554;2023-11-22T11:31:25;75013.66;;;-143.60;84.30
68329;BME280;55182;56.864;60.554;2023-11-22T11:33:56;75013.66;;;-143.60;83.97
68329;BME280;55182;56.864;60.554;2023-11-22T11:36:23;75013.66;;;-143.60;84.28
68329;BME280;55182;56.864;60.554;2023-11-22T11:38:48;75013.66;;;-143.60;84.26
68329;BME280;55182;56.864;60.554;2023-11-22T11:41:14;75007.63;;;-143.60;84.14
68329;BME280;55182;56.864;60.554;2023-11-22T11:43:46;75003.63;;;-143.60;84.13
68329;BME280;55182;56.864;60.554;2023-11-22T11:46:12;75001.59;;;-143.60;84.12
68329;BME280;55182;56.864;60.554;2023-11-22T11:48:41;75001.59;;;-143.60;84.26
68329;BME280;55182;56.864;60.554;2023-11-22T11:51:07;75005.63;;;-143.60;84.27
68329;BME280;55182;56.864;60.554;2023-11-22T11:53:32;75005.63;;;-143.60;84.57
68329;BME280;55182;56.864;60.554;2023-11-22T11:55:58;75009.63;;;-143.60;84.28
68329;BME280;55182;56.864;60.554;2023-11-22T11:58:24;75007.63;;;-143.60;84.26
68329;BME280;55182;56.864;60.554;2023-11-22T12:00:54;75009.63;;;-143.60;84.30
68329;BME280;55182;56.864;60.554;2023-11-22T12:03:19;75009.63;;;-143.60;84.44
68329;BME280;55182;56.864;60.554;2023-11-22T12:05:45;75007.63;;;-143.60;84.51
68329;BME280;55182;56.864;60.554;2023-11-22T12:08:10;75001.59;;;-143.60;84.67
68329;BME280;55182;56.864;60.554;2023-11-22T12:10:36;74991.56;;;-143.60;84.25
68329;BME280;55182;56.864;60.554;2023-11-22T12:13:01;74993.56;;;-143.60;84.25
68329;BME280;55182;56.864;60.554;2023-11-22T12:15:27;74989.56;;;-143.60;84.80
68329;BME280;55182;56.864;60.554;2023-11-22T12:17:52;74991.56;;;-143.60;84.62
68329;BME280;55182;56.864;60.554;2023-11-22T12:20:18;74989.56;;;-143.60;84.93
68329;BME280;55182;56.864;60.554;2023-11-22T12:22:43;74981.50;;;-143.60;85.19
68329;BME280;55182;56.864;60.554;2023-11-22T12:25:10;74977.50;;;-143.60;85.00
68329;BME280;55182;56.864;60.554;2023-11-22T12:27:38;74981.50;;;-143.60;85.36